Pagrindinis puslapis
METAR-TAF:

METAR-TAF

Oro uostai :

Santa Rosa, Argentina

platuma: 36-34S, ilguma: 064-16W, Aukštis: 190 m

Dabartinis oras

Ataskaita buvo paskelbta 11 valandos ir 36 minutes, ne 16:31 UTC
Vėjas 7 kt iš Rytų/Pietryčių
Temperatūra 10°C
Drėgmė 93%
Slėgis 1015 hPa
Matomumas: 4000 m
Apsiniaukę ne aukštis 1200 ft
dulksna, rūkana

METAR: SAZR 281631Z 11007KT 4000 -DZBR OVC012 10/09 Q1015

Laikas: 01:07 (04:07 UTC)


TAF: trūkstamas

Orai ataskaitas ir orų prognozės (METAR, TAF).

turimą stotys yra geltonos ir raudonos taškus žemėlapyje.

Perkelti pele per norėdami pamatyti stoties vardą.

Tada spustelėkite, norėdami matyti oro stebėjimo ir prognozės.

Norėdami pakeisti žemėlapį: spustelėkite ant žalios mygtukų su juodo kryžiaus žemyn,; žalią mygtuką su brūkšneliu, jei norite nutolinti; arba žalių rodyklių gretimoms žemėlapius.


METAR-TAF: